sensor_id;sensor_type;location;lat;lon;timestamp;P1;durP1;ratioP1;P2;durP2;ratioP2
6517;SDS011;3292;48.944;9.240;2024-01-16T00:00:39;7.47;;;5.53;;
6517;SDS011;3292;48.944;9.240;2024-01-16T00:03:06;8.37;;;6.10;;
6517;SDS011;3292;48.944;9.240;2024-01-16T00:05:34;6.03;;;4.97;;
6517;SDS011;3292;48.944;9.240;2024-01-16T00:08:00;5.17;;;4.67;;
6517;SDS011;3292;48.944;9.240;2024-01-16T00:10:27;6.37;;;5.03;;
6517;SDS011;3292;48.944;9.240;2024-01-16T00:12:54;9.50;;;5.40;;
6517;SDS011;3292;48.944;9.240;2024-01-16T00:15:21;6.03;;;5.43;;
6517;SDS011;3292;48.944;9.240;2024-01-16T00:17:48;7.23;;;5.43;;
6517;SDS011;3292;48.944;9.240;2024-01-16T00:20:16;7.83;;;4.77;;
6517;SDS011;3292;48.944;9.240;2024-01-16T00:22:44;7.07;;;4.93;;
6517;SDS011;3292;48.944;9.240;2024-01-16T00:25:11;6.97;;;5.83;;
6517;SDS011;3292;48.944;9.240;2024-01-16T00:27:38;8.13;;;5.50;;
6517;SDS011;3292;48.944;9.240;2024-01-16T00:30:05;6.83;;;5.80;;
6517;SDS011;3292;48.944;9.240;2024-01-16T00:32:34;7.43;;;4.80;;
6517;SDS011;3292;48.944;9.240;2024-01-16T00:35:00;7.33;;;5.53;;
6517;SDS011;3292;48.944;9.240;2024-01-16T00:37:28;6.13;;;5.30;;
6517;SDS011;3292;48.944;9.240;2024-01-16T00:39:56;6.90;;;5.20;;
6517;SDS011;3292;48.944;9.240;2024-01-16T00:42:23;6.80;;;5.30;;
6517;SDS011;3292;48.944;9.240;2024-01-16T00:44:50;6.37;;;5.33;;
6517;SDS011;3292;48.944;9.240;2024-01-16T00:47:16;5.43;;;4.57;;
6517;SDS011;3292;48.944;9.240;2024-01-16T00:49:43;6.67;;;5.07;;
6517;SDS011;3292;48.944;9.240;2024-01-16T00:52:10;7.07;;;5.37;;
6517;SDS011;3292;48.944;9.240;2024-01-16T00:54:37;6.20;;;5.23;;
6517;SDS011;3292;48.944;9.240;2024-01-16T00:57:05;6.07;;;5.47;;
6517;SDS011;3292;48.944;9.240;2024-01-16T00:59:32;7.40;;;5.57;;
6517;SDS011;3292;48.944;9.240;2024-01-16T01:01:58;8.73;;;5.00;;
6517;SDS011;3292;48.944;9.240;2024-01-16T01:04:26;6.93;;;5.40;;
6517;SDS011;3292;48.944;9.240;2024-01-16T01:06:52;6.93;;;5.17;;
6517;SDS011;3292;48.944;9.240;2024-01-16T01:09:19;8.23;;;5.43;;
6517;SDS011;3292;48.944;9.240;2024-01-16T01:11:46;7.70;;;4.90;;
6517;SDS011;3292;48.944;9.240;2024-01-16T01:14:14;6.07;;;4.83;;
6517;SDS011;3292;48.944;9.240;2024-01-16T01:16:41;5.73;;;4.80;;
6517;SDS011;3292;48.944;9.240;2024-01-16T01:19:08;10.30;;;6.60;;
6517;SDS011;3292;48.944;9.240;2024-01-16T01:21:35;9.83;;;6.63;;
6517;SDS011;3292;48.944;9.240;2024-01-16T01:24:02;7.77;;;6.10;;
6517;SDS011;3292;48.944;9.240;2024-01-16T01:26:29;8.43;;;5.53;;
6517;SDS011;3292;48.944;9.240;2024-01-16T01:28:55;7.43;;;5.53;;
6517;SDS011;3292;48.944;9.240;2024-01-16T01:31:24;6.27;;;5.23;;
6517;SDS011;3292;48.944;9.240;2024-01-16T01:33:51;7.97;;;5.20;;
6517;SDS011;3292;48.944;9.240;2024-01-16T01:36:17;7.47;;;5.93;;
6517;SDS011;3292;48.944;9.240;2024-01-16T01:38:44;8.07;;;5.10;;
6517;SDS011;3292;48.944;9.240;2024-01-16T01:41:11;7.03;;;5.33;;
6517;SDS011;3292;48.944;9.240;2024-01-16T01:43:38;5.67;;;5.07;;
6517;SDS011;3292;48.944;9.240;2024-01-16T01:46:12;8.00;;;4.93;;
6517;SDS011;3292;48.944;9.240;2024-01-16T01:48:43;7.83;;;5.60;;
6517;SDS011;3292;48.944;9.240;2024-01-16T01:51:13;6.63;;;5.27;;
6517;SDS011;3292;48.944;9.240;2024-01-16T01:53:41;11.73;;;5.77;;
6517;SDS011;3292;48.944;9.240;2024-01-16T01:56:11;6.33;;;5.60;;
6517;SDS011;3292;48.944;9.240;2024-01-16T01:58:40;6.57;;;5.70;;
6517;SDS011;3292;48.944;9.240;2024-01-16T02:01:10;9.70;;;5.53;;
6517;SDS011;3292;48.944;9.240;2024-01-16T02:03:39;8.23;;;5.60;;
6517;SDS011;3292;48.944;9.240;2024-01-16T02:06:09;5.90;;;5.27;;
6517;SDS011;3292;48.944;9.240;2024-01-16T02:08:37;6.90;;;5.33;;
6517;SDS011;3292;48.944;9.240;2024-01-16T02:11:04;6.70;;;6.00;;
6517;SDS011;3292;48.944;9.240;2024-01-16T02:13:32;7.00;;;5.40;;
6517;SDS011;3292;48.944;9.240;2024-01-16T02:15:59;9.57;;;5.47;;
6517;SDS011;3292;48.944;9.240;2024-01-16T02:18:26;7.13;;;5.47;;
6517;SDS011;3292;48.944;9.240;2024-01-16T02:20:52;7.23;;;5.83;;
6517;SDS011;3292;48.944;9.240;2024-01-16T02:23:25;7.87;;;6.13;;
6517;SDS011;3292;48.944;9.240;2024-01-16T02:25:53;6.33;;;5.63;;
6517;SDS011;3292;48.944;9.240;2024-01-16T02:28:20;6.67;;;5.17;;
6517;SDS011;3292;48.944;9.240;2024-01-16T02:30:47;7.53;;;5.67;;
6517;SDS011;3292;48.944;9.240;2024-01-16T02:33:14;6.47;;;5.73;;
6517;SDS011;3292;48.944;9.240;2024-01-16T02:35:40;7.80;;;5.90;;
6517;SDS011;3292;48.944;9.240;2024-01-16T02:38:07;8.67;;;6.17;;
6517;SDS011;3292;48.944;9.240;2024-01-16T02:40:34;7.83;;;6.10;;
6517;SDS011;3292;48.944;9.240;2024-01-16T02:43:01;6.93;;;5.90;;
6517;SDS011;3292;48.944;9.240;2024-01-16T02:45:28;9.10;;;5.87;;
6517;SDS011;3292;48.944;9.240;2024-01-16T02:47:55;8.93;;;6.40;;
6517;SDS011;3292;48.944;9.240;2024-01-16T02:50:21;8.00;;;5.37;;
6517;SDS011;3292;48.944;9.240;2024-01-16T02:52:48;7.17;;;5.50;;
6517;SDS011;3292;48.944;9.240;2024-01-16T02:55:16;5.93;;;5.13;;
6517;SDS011;3292;48.944;9.240;2024-01-16T02:57:44;7.00;;;5.57;;
6517;SDS011;3292;48.944;9.240;2024-01-16T03:00:11;7.23;;;5.13;;
6517;SDS011;3292;48.944;9.240;2024-01-16T03:02:38;9.33;;;5.80;;
6517;SDS011;3292;48.944;9.240;2024-01-16T03:05:05;8.37;;;5.23;;
6517;SDS011;3292;48.944;9.240;2024-01-16T03:07:32;5.90;;;5.17;;
6517;SDS011;3292;48.944;9.240;2024-01-16T03:10:00;6.90;;;4.80;;
6517;SDS011;3292;48.944;9.240;2024-01-16T03:12:26;7.73;;;5.77;;
6517;SDS011;3292;48.944;9.240;2024-01-16T03:14:55;8.03;;;5.40;;
6517;SDS011;3292;48.944;9.240;2024-01-16T03:17:21;6.77;;;5.70;;
6517;SDS011;3292;48.944;9.240;2024-01-16T03:19:48;6.50;;;5.83;;
6517;SDS011;3292;48.944;9.240;2024-01-16T03:22:15;7.73;;;5.80;;
6517;SDS011;3292;48.944;9.240;2024-01-16T03:24:42;9.10;;;5.57;;
6517;SDS011;3292;48.944;9.240;2024-01-16T03:27:08;8.00;;;5.50;;
6517;SDS011;3292;48.944;9.240;2024-01-16T03:29:35;6.83;;;5.00;;
6517;SDS011;3292;48.944;9.240;2024-01-16T03:32:04;6.90;;;5.13;;
6517;SDS011;3292;48.944;9.240;2024-01-16T03:34:31;7.47;;;6.20;;
6517;SDS011;3292;48.944;9.240;2024-01-16T03:36:58;7.43;;;5.53;;
6517;SDS011;3292;48.944;9.240;2024-01-16T03:39:24;6.87;;;6.17;;
6517;SDS011;3292;48.944;9.240;2024-01-16T03:41:51;6.73;;;5.20;;
6517;SDS011;3292;48.944;9.240;2024-01-16T03:44:18;8.27;;;5.73;;
6517;SDS011;3292;48.944;9.240;2024-01-16T03:46:45;9.93;;;6.27;;
6517;SDS011;3292;48.944;9.240;2024-01-16T03:49:13;8.53;;;6.33;;
6517;SDS011;3292;48.944;9.240;2024-01-16T03:51:40;8.93;;;5.77;;
6517;SDS011;3292;48.944;9.240;2024-01-16T03:54:11;9.37;;;5.80;;
6517;SDS011;3292;48.944;9.240;2024-01-16T03:56:38;7.27;;;5.27;;
6517;SDS011;3292;48.944;9.240;2024-01-16T03:59:04;8.07;;;5.17;;
6517;SDS011;3292;48.944;9.240;2024-01-16T04:01:31;7.37;;;4.63;;
6517;SDS011;3292;48.944;9.240;2024-01-16T04:03:59;8.23;;;5.33;;
6517;SDS011;3292;48.944;9.240;2024-01-16T04:06:27;8.20;;;5.17;;
6517;SDS011;3292;48.944;9.240;2024-01-16T04:08:54;6.83;;;5.57;;
6517;SDS011;3292;48.944;9.240;2024-01-16T04:11:21;9.20;;;5.30;;
6517;SDS011;3292;48.944;9.240;2024-01-16T04:13:48;6.07;;;5.33;;
6517;SDS011;3292;48.944;9.240;2024-01-16T04:16:15;6.87;;;5.17;;
6517;SDS011;3292;48.944;9.240;2024-01-16T04:18:42;8.37;;;5.97;;
6517;SDS011;3292;48.944;9.240;2024-01-16T04:21:10;8.67;;;5.00;;
6517;SDS011;3292;48.944;9.240;2024-01-16T04:23:38;5.93;;;4.87;;
6517;SDS011;3292;48.944;9.240;2024-01-16T04:26:05;7.23;;;5.63;;
6517;SDS011;3292;48.944;9.240;2024-01-16T04:28:32;5.30;;;4.80;;
6517;SDS011;3292;48.944;9.240;2024-01-16T04:30:59;8.70;;;5.13;;
6517;SDS011;3292;48.944;9.240;2024-01-16T04:33:26;8.33;;;5.20;;
6517;SDS011;3292;48.944;9.240;2024-01-16T04:35:53;6.50;;;5.40;;
6517;SDS011;3292;48.944;9.240;2024-01-16T04:38:20;8.17;;;6.00;;
6517;SDS011;3292;48.944;9.240;2024-01-16T04:40:48;5.90;;;5.30;;
6517;SDS011;3292;48.944;9.240;2024-01-16T04:43:15;9.20;;;5.40;;
6517;SDS011;3292;48.944;9.240;2024-01-16T04:45:42;8.87;;;6.13;;
6517;SDS011;3292;48.944;9.240;2024-01-16T04:48:09;8.30;;;5.40;;
6517;SDS011;3292;48.944;9.240;2024-01-16T04:50:35;7.40;;;5.87;;
6517;SDS011;3292;48.944;9.240;2024-01-16T04:53:02;7.20;;;5.23;;
6517;SDS011;3292;48.944;9.240;2024-01-16T04:55:29;7.07;;;5.30;;
6517;SDS011;3292;48.944;9.240;2024-01-16T04:57:58;8.67;;;6.17;;
6517;SDS011;3292;48.944;9.240;2024-01-16T05:00:25;8.10;;;5.40;;
6517;SDS011;3292;48.944;9.240;2024-01-16T05:02:52;8.33;;;5.87;;
6517;SDS011;3292;48.944;9.240;2024-01-16T05:05:19;7.97;;;6.03;;
6517;SDS011;3292;48.944;9.240;2024-01-16T05:07:46;6.57;;;5.50;;
6517;SDS011;3292;48.944;9.240;2024-01-16T05:10:12;7.47;;;5.70;;
6517;SDS011;3292;48.944;9.240;2024-01-16T05:12:39;7.47;;;6.30;;
6517;SDS011;3292;48.944;9.240;2024-01-16T05:15:08;9.73;;;6.23;;
6517;SDS011;3292;48.944;9.240;2024-01-16T05:17:36;8.27;;;6.73;;
6517;SDS011;3292;48.944;9.240;2024-01-16T05:20:06;8.07;;;6.03;;
6517;SDS011;3292;48.944;9.240;2024-01-16T05:22:35;7.87;;;6.77;;
6517;SDS011;3292;48.944;9.240;2024-01-16T05:25:03;8.17;;;6.63;;
6517;SDS011;3292;48.944;9.240;2024-01-16T05:27:32;8.17;;;7.23;;
6517;SDS011;3292;48.944;9.240;2024-01-16T05:29:59;7.83;;;6.67;;
6517;SDS011;3292;48.944;9.240;2024-01-16T05:32:27;8.30;;;7.10;;
6517;SDS011;3292;48.944;9.240;2024-01-16T05:34:54;7.17;;;6.13;;
6517;SDS011;3292;48.944;9.240;2024-01-16T05:37:21;9.80;;;7.43;;
6517;SDS011;3292;48.944;9.240;2024-01-16T05:39:47;8.67;;;6.30;;
6517;SDS011;3292;48.944;9.240;2024-01-16T05:42:14;6.33;;;5.40;;
6517;SDS011;3292;48.944;9.240;2024-01-16T05:44:41;6.93;;;6.20;;
6517;SDS011;3292;48.944;9.240;2024-01-16T05:47:08;13.00;;;5.67;;
6517;SDS011;3292;48.944;9.240;2024-01-16T05:49:36;8.87;;;5.80;;
6517;SDS011;3292;48.944;9.240;2024-01-16T05:52:04;6.57;;;5.63;;
6517;SDS011;3292;48.944;9.240;2024-01-16T05:54:32;6.47;;;5.37;;
6517;SDS011;3292;48.944;9.240;2024-01-16T05:56:59;7.50;;;5.33;;
6517;SDS011;3292;48.944;9.240;2024-01-16T05:59:25;8.03;;;5.97;;
6517;SDS011;3292;48.944;9.240;2024-01-16T06:01:52;6.63;;;5.87;;
6517;SDS011;3292;48.944;9.240;2024-01-16T06:04:19;8.37;;;6.23;;
6517;SDS011;3292;48.944;9.240;2024-01-16T06:06:47;9.83;;;6.70;;
6517;SDS011;3292;48.944;9.240;2024-01-16T06:09:14;10.40;;;6.97;;
6517;SDS011;3292;48.944;9.240;2024-01-16T06:11:41;7.83;;;6.47;;
6517;SDS011;3292;48.944;9.240;2024-01-16T06:14:08;8.70;;;6.80;;
6517;SDS011;3292;48.944;9.240;2024-01-16T06:16:35;7.40;;;6.40;;
6517;SDS011;3292;48.944;9.240;2024-01-16T06:19:01;7.27;;;6.30;;
6517;SDS011;3292;48.944;9.240;2024-01-16T06:21:29;6.87;;;5.97;;
6517;SDS011;3292;48.944;9.240;2024-01-16T06:23:58;7.60;;;6.37;;
6517;SDS011;3292;48.944;9.240;2024-01-16T06:26:25;7.90;;;6.40;;
6517;SDS011;3292;48.944;9.240;2024-01-16T06:28:52;9.80;;;6.07;;
6517;SDS011;3292;48.944;9.240;2024-01-16T06:31:19;8.13;;;6.20;;
6517;SDS011;3292;48.944;9.240;2024-01-16T06:33:45;7.17;;;6.17;;
6517;SDS011;3292;48.944;9.240;2024-01-16T06:36:12;9.90;;;6.77;;
6517;SDS011;3292;48.944;9.240;2024-01-16T06:38:39;8.97;;;6.93;;
6517;SDS011;3292;48.944;9.240;2024-01-16T06:41:07;9.53;;;6.83;;
6517;SDS011;3292;48.944;9.240;2024-01-16T06:43:34;9.73;;;6.80;;
6517;SDS011;3292;48.944;9.240;2024-01-16T06:46:01;8.80;;;6.53;;
6517;SDS011;3292;48.944;9.240;2024-01-16T06:48:28;8.07;;;6.07;;
6517;SDS011;3292;48.944;9.240;2024-01-16T06:50:55;8.20;;;6.53;;
6517;SDS011;3292;48.944;9.240;2024-01-16T06:53:21;9.70;;;6.20;;
6517;SDS011;3292;48.944;9.240;2024-01-16T06:55:48;7.83;;;6.33;;
6517;SDS011;3292;48.944;9.240;2024-01-16T06:58:16;11.43;;;6.93;;
6517;SDS011;3292;48.944;9.240;2024-01-16T07:00:43;11.87;;;6.60;;
6517;SDS011;3292;48.944;9.240;2024-01-16T07:03:11;9.50;;;6.47;;
6517;SDS011;3292;48.944;9.240;2024-01-16T07:05:37;9.70;;;6.60;;
6517;SDS011;3292;48.944;9.240;2024-01-16T07:08:05;7.63;;;6.13;;
6517;SDS011;3292;48.944;9.240;2024-01-16T07:10:33;7.47;;;5.70;;
6517;SDS011;3292;48.944;9.240;2024-01-16T07:13:00;7.50;;;6.37;;
6517;SDS011;3292;48.944;9.240;2024-01-16T07:15:29;8.50;;;6.57;;
6517;SDS011;3292;48.944;9.240;2024-01-16T07:17:56;9.70;;;6.73;;
6517;SDS011;3292;48.944;9.240;2024-01-16T07:20:22;9.70;;;7.07;;
6517;SDS011;3292;48.944;9.240;2024-01-16T07:22:49;9.47;;;7.13;;
6517;SDS011;3292;48.944;9.240;2024-01-16T07:25:16;9.47;;;7.10;;
6517;SDS011;3292;48.944;9.240;2024-01-16T07:27:43;9.77;;;7.00;;
6517;SDS011;3292;48.944;9.240;2024-01-16T07:30:13;8.17;;;6.60;;
6517;SDS011;3292;48.944;9.240;2024-01-16T07:32:42;10.37;;;6.90;;
6517;SDS011;3292;48.944;9.240;2024-01-16T07:35:09;7.97;;;6.93;;
6517;SDS011;3292;48.944;9.240;2024-01-16T07:37:35;8.27;;;6.63;;
6517;SDS011;3292;48.944;9.240;2024-01-16T07:40:02;10.00;;;7.50;;
6517;SDS011;3292;48.944;9.240;2024-01-16T07:42:30;10.73;;;7.10;;
6517;SDS011;3292;48.944;9.240;2024-01-16T07:44:59;8.80;;;6.50;;
6517;SDS011;3292;48.944;9.240;2024-01-16T07:47:26;7.23;;;6.50;;
6517;SDS011;3292;48.944;9.240;2024-01-16T07:49:54;7.33;;;6.57;;
6517;SDS011;3292;48.944;9.240;2024-01-16T07:52:21;9.33;;;6.90;;
6517;SDS011;3292;48.944;9.240;2024-01-16T07:54:48;9.27;;;7.50;;
6517;SDS011;3292;48.944;9.240;2024-01-16T07:57:14;9.67;;;7.13;;
6517;SDS011;3292;48.944;9.240;2024-01-16T07:59:41;9.23;;;7.20;;
6517;SDS011;3292;48.944;9.240;2024-01-16T08:02:08;10.27;;;7.40;;
6517;SDS011;3292;48.944;9.240;2024-01-16T08:04:35;8.73;;;6.87;;
6517;SDS011;3292;48.944;9.240;2024-01-16T08:07:03;8.10;;;6.33;;
6517;SDS011;3292;48.944;9.240;2024-01-16T08:09:30;8.13;;;7.20;;
6517;SDS011;3292;48.944;9.240;2024-01-16T08:11:57;9.93;;;6.67;;
6517;SDS011;3292;48.944;9.240;2024-01-16T08:14:24;8.93;;;7.23;;
6517;SDS011;3292;48.944;9.240;2024-01-16T08:16:50;7.70;;;6.60;;
6517;SDS011;3292;48.944;9.240;2024-01-16T08:19:17;8.47;;;6.63;;
6517;SDS011;3292;48.944;9.240;2024-01-16T08:21:44;8.23;;;6.47;;
6517;SDS011;3292;48.944;9.240;2024-01-16T08:24:12;7.03;;;6.33;;
6517;SDS011;3292;48.944;9.240;2024-01-16T08:26:39;8.33;;;6.23;;
6517;SDS011;3292;48.944;9.240;2024-01-16T08:29:05;10.00;;;6.90;;
6517;SDS011;3292;48.944;9.240;2024-01-16T08:31:32;6.60;;;5.57;;
6517;SDS011;3292;48.944;9.240;2024-01-16T08:33:59;11.33;;;6.60;;
6517;SDS011;3292;48.944;9.240;2024-01-16T08:36:26;10.17;;;6.07;;
6517;SDS011;3292;48.944;9.240;2024-01-16T08:38:53;7.27;;;5.93;;
6517;SDS011;3292;48.944;9.240;2024-01-16T08:41:21;11.10;;;5.90;;
6517;SDS011;3292;48.944;9.240;2024-01-16T08:43:48;7.57;;;5.57;;
6517;SDS011;3292;48.944;9.240;2024-01-16T08:46:16;6.70;;;5.50;;
6517;SDS011;3292;48.944;9.240;2024-01-16T08:48:44;6.20;;;5.50;;
6517;SDS011;3292;48.944;9.240;2024-01-16T08:51:11;9.33;;;6.00;;
6517;SDS011;3292;48.944;9.240;2024-01-16T08:53:39;7.67;;;4.83;;
6517;SDS011;3292;48.944;9.240;2024-01-16T08:56:05;7.93;;;5.57;;
6517;SDS011;3292;48.944;9.240;2024-01-16T08:58:35;7.90;;;5.73;;
6517;SDS011;3292;48.944;9.240;2024-01-16T09:01:03;5.53;;;4.93;;
6517;SDS011;3292;48.944;9.240;2024-01-16T09:03:30;6.07;;;5.30;;
6517;SDS011;3292;48.944;9.240;2024-01-16T09:05:56;5.73;;;5.10;;
6517;SDS011;3292;48.944;9.240;2024-01-16T09:08:24;8.70;;;5.93;;
6517;SDS011;3292;48.944;9.240;2024-01-16T09:10:54;8.07;;;5.90;;
6517;SDS011;3292;48.944;9.240;2024-01-16T09:13:22;7.53;;;6.27;;
6517;SDS011;3292;48.944;9.240;2024-01-16T09:15:50;8.40;;;5.43;;
6517;SDS011;3292;48.944;9.240;2024-01-16T09:18:17;6.07;;;4.93;;
6517;SDS011;3292;48.944;9.240;2024-01-16T09:20:44;9.33;;;6.37;;
6517;SDS011;3292;48.944;9.240;2024-01-16T09:23:11;8.50;;;6.90;;
6517;SDS011;3292;48.944;9.240;2024-01-16T09:25:39;9.50;;;6.90;;
6517;SDS011;3292;48.944;9.240;2024-01-16T09:28:06;6.77;;;5.03;;
6517;SDS011;3292;48.944;9.240;2024-01-16T09:30:33;8.90;;;5.37;;
6517;SDS011;3292;48.944;9.240;2024-01-16T09:33:03;6.33;;;4.90;;
6517;SDS011;3292;48.944;9.240;2024-01-16T09:35:31;7.07;;;5.10;;
6517;SDS011;3292;48.944;9.240;2024-01-16T09:37:59;6.60;;;5.33;;
6517;SDS011;3292;48.944;9.240;2024-01-16T09:40:25;6.97;;;5.43;;
6517;SDS011;3292;48.944;9.240;2024-01-16T09:42:52;9.47;;;5.63;;
6517;SDS011;3292;48.944;9.240;2024-01-16T09:45:19;9.13;;;6.47;;
6517;SDS011;3292;48.944;9.240;2024-01-16T09:47:47;9.07;;;6.20;;
6517;SDS011;3292;48.944;9.240;2024-01-16T09:50:18;8.00;;;5.83;;
6517;SDS011;3292;48.944;9.240;2024-01-16T09:52:45;9.90;;;6.23;;
6517;SDS011;3292;48.944;9.240;2024-01-16T09:55:12;9.20;;;6.80;;
6517;SDS011;3292;48.944;9.240;2024-01-16T09:57:40;8.47;;;7.30;;
6517;SDS011;3292;48.944;9.240;2024-01-16T10:00:08;8.80;;;6.40;;
6517;SDS011;3292;48.944;9.240;2024-01-16T10:02:37;9.23;;;7.90;;
6517;SDS011;3292;48.944;9.240;2024-01-16T10:05:05;8.30;;;7.00;;
6517;SDS011;3292;48.944;9.240;2024-01-16T10:07:35;11.93;;;7.67;;
6517;SDS011;3292;48.944;9.240;2024-01-16T10:10:04;11.60;;;7.40;;
6517;SDS011;3292;48.944;9.240;2024-01-16T10:12:32;10.67;;;7.70;;
6517;SDS011;3292;48.944;9.240;2024-01-16T10:14:59;9.50;;;6.80;;
6517;SDS011;3292;48.944;9.240;2024-01-16T10:17:35;9.40;;;6.83;;
6517;SDS011;3292;48.944;9.240;2024-01-16T10:20:03;9.20;;;6.67;;
6517;SDS011;3292;48.944;9.240;2024-01-16T10:22:30;9.10;;;6.13;;
6517;SDS011;3292;48.944;9.240;2024-01-16T10:25:05;8.57;;;6.30;;
6517;SDS011;3292;48.944;9.240;2024-01-16T10:27:33;6.73;;;5.80;;
6517;SDS011;3292;48.944;9.240;2024-01-16T10:30:00;7.73;;;5.67;;
6517;SDS011;3292;48.944;9.240;2024-01-16T10:32:28;7.90;;;5.97;;
6517;SDS011;3292;48.944;9.240;2024-01-16T10:35:02;9.30;;;6.40;;
6517;SDS011;3292;48.944;9.240;2024-01-16T10:37:30;9.90;;;6.13;;
6517;SDS011;3292;48.944;9.240;2024-01-16T10:40:08;8.27;;;5.67;;
6517;SDS011;3292;48.944;9.240;2024-01-16T10:42:36;8.90;;;6.70;;
6517;SDS011;3292;48.944;9.240;2024-01-16T10:45:03;7.93;;;6.13;;
6517;SDS011;3292;48.944;9.240;2024-01-16T10:47:31;7.70;;;5.70;;
6517;SDS011;3292;48.944;9.240;2024-01-16T10:50:02;7.70;;;5.57;;
6517;SDS011;3292;48.944;9.240;2024-01-16T10:52:30;8.10;;;6.20;;
6517;SDS011;3292;48.944;9.240;2024-01-16T10:55:00;6.87;;;5.43;;
6517;SDS011;3292;48.944;9.240;2024-01-16T10:57:31;7.67;;;5.87;;
6517;SDS011;3292;48.944;9.240;2024-01-16T11:00:00;8.17;;;5.73;;
6517;SDS011;3292;48.944;9.240;2024-01-16T11:02:35;6.57;;;5.77;;
6517;SDS011;3292;48.944;9.240;2024-01-16T11:05:09;8.13;;;5.03;;
6517;SDS011;3292;48.944;9.240;2024-01-16T11:07:38;8.17;;;5.20;;
6517;SDS011;3292;48.944;9.240;2024-01-16T11:10:07;9.80;;;5.57;;
6517;SDS011;3292;48.944;9.240;2024-01-16T11:12:36;8.17;;;4.90;;
6517;SDS011;3292;48.944;9.240;2024-01-16T11:15:05;8.40;;;5.17;;
6517;SDS011;3292;48.944;9.240;2024-01-16T11:17:33;8.87;;;4.70;;
6517;SDS011;3292;48.944;9.240;2024-01-16T11:20:01;7.23;;;5.37;;
6517;SDS011;3292;48.944;9.240;2024-01-16T11:22:31;7.67;;;5.57;;
6517;SDS011;3292;48.944;9.240;2024-01-16T11:25:07;5.23;;;4.73;;
6517;SDS011;3292;48.944;9.240;2024-01-16T11:27:37;5.53;;;4.93;;
6517;SDS011;3292;48.944;9.240;2024-01-16T11:30:05;9.13;;;4.67;;
6517;SDS011;3292;48.944;9.240;2024-01-16T11:32:33;8.90;;;4.90;;
6517;SDS011;3292;48.944;9.240;2024-01-16T11:35:02;5.83;;;5.07;;
6517;SDS011;3292;48.944;9.240;2024-01-16T11:37:29;8.93;;;4.97;;
6517;SDS011;3292;48.944;9.240;2024-01-16T11:42:48;6.30;;;4.73;;
6517;SDS011;3292;48.944;9.240;2024-01-16T11:48:17;5.47;;;4.50;;
6517;SDS011;3292;48.944;9.240;2024-01-16T11:50:45;7.00;;;4.87;;
6517;SDS011;3292;48.944;9.240;2024-01-16T11:53:31;8.33;;;5.20;;
6517;SDS011;3292;48.944;9.240;2024-01-16T11:56:06;5.00;;;4.50;;
6517;SDS011;3292;48.944;9.240;2024-01-16T11:58:53;7.23;;;4.73;;
6517;SDS011;3292;48.944;9.240;2024-01-16T12:01:34;7.20;;;4.57;;
6517;SDS011;3292;48.944;9.240;2024-01-16T12:04:02;5.40;;;4.53;;
6517;SDS011;3292;48.944;9.240;2024-01-16T12:06:29;7.23;;;5.17;;
6517;SDS011;3292;48.944;9.240;2024-01-16T12:09:10;10.03;;;4.83;;
6517;SDS011;3292;48.944;9.240;2024-01-16T12:11:38;6.00;;;4.50;;
6517;SDS011;3292;48.944;9.240;2024-01-16T12:14:06;5.60;;;4.23;;
6517;SDS011;3292;48.944;9.240;2024-01-16T12:16:33;5.63;;;4.80;;
6517;SDS011;3292;48.944;9.240;2024-01-16T12:19:06;7.23;;;4.63;;
6517;SDS011;3292;48.944;9.240;2024-01-16T12:21:33;6.63;;;4.37;;
6517;SDS011;3292;48.944;9.240;2024-01-16T12:24:01;5.87;;;4.70;;
6517;SDS011;3292;48.944;9.240;2024-01-16T12:26:28;5.97;;;4.47;;
6517;SDS011;3292;48.944;9.240;2024-01-16T12:28:55;5.93;;;4.63;;
6517;SDS011;3292;48.944;9.240;2024-01-16T12:31:24;6.53;;;4.17;;
6517;SDS011;3292;48.944;9.240;2024-01-16T12:33:51;6.70;;;4.17;;
6517;SDS011;3292;48.944;9.240;2024-01-16T12:36:18;8.67;;;5.33;;
6517;SDS011;3292;48.944;9.240;2024-01-16T12:38:45;5.70;;;4.97;;
6517;SDS011;3292;48.944;9.240;2024-01-16T12:41:20;4.87;;;4.37;;
6517;SDS011;3292;48.944;9.240;2024-01-16T12:43:48;6.17;;;4.97;;
6517;SDS011;3292;48.944;9.240;2024-01-16T12:46:16;6.80;;;4.27;;
6517;SDS011;3292;48.944;9.240;2024-01-16T12:48:45;6.20;;;4.17;;
6517;SDS011;3292;48.944;9.240;2024-01-16T12:51:19;5.60;;;4.40;;
6517;SDS011;3292;48.944;9.240;2024-01-16T12:53:47;5.93;;;3.93;;
6517;SDS011;3292;48.944;9.240;2024-01-16T12:56:17;4.47;;;3.60;;
6517;SDS011;3292;48.944;9.240;2024-01-16T12:58:45;5.07;;;3.93;;
6517;SDS011;3292;48.944;9.240;2024-01-16T13:01:22;7.83;;;4.13;;
6517;SDS011;3292;48.944;9.240;2024-01-16T13:03:52;4.60;;;3.90;;
6517;SDS011;3292;48.944;9.240;2024-01-16T13:06:20;5.10;;;3.47;;
6517;SDS011;3292;48.944;9.240;2024-01-16T13:08:47;5.47;;;4.07;;
6517;SDS011;3292;48.944;9.240;2024-01-16T13:11:14;5.13;;;3.77;;
6517;SDS011;3292;48.944;9.240;2024-01-16T13:13:45;6.57;;;3.93;;
6517;SDS011;3292;48.944;9.240;2024-01-16T13:16:13;5.27;;;3.80;;
6517;SDS011;3292;48.944;9.240;2024-01-16T13:18:41;5.57;;;3.87;;
6517;SDS011;3292;48.944;9.240;2024-01-16T13:21:09;7.37;;;3.70;;
6517;SDS011;3292;48.944;9.240;2024-01-16T13:23:35;7.67;;;4.10;;
6517;SDS011;3292;48.944;9.240;2024-01-16T13:26:02;10.33;;;4.03;;
6517;SDS011;3292;48.944;9.240;2024-01-16T13:28:30;7.17;;;4.30;;
6517;SDS011;3292;48.944;9.240;2024-01-16T13:30:57;5.37;;;3.77;;
6517;SDS011;3292;48.944;9.240;2024-01-16T13:33:24;4.97;;;3.80;;
6517;SDS011;3292;48.944;9.240;2024-01-16T13:35:52;7.87;;;3.80;;
6517;SDS011;3292;48.944;9.240;2024-01-16T13:38:21;5.03;;;3.67;;
6517;SDS011;3292;48.944;9.240;2024-01-16T13:40:48;5.70;;;3.50;;
6517;SDS011;3292;48.944;9.240;2024-01-16T13:43:16;5.43;;;3.17;;
6517;SDS011;3292;48.944;9.240;2024-01-16T13:45:43;6.83;;;3.80;;
6517;SDS011;3292;48.944;9.240;2024-01-16T13:48:14;5.47;;;3.77;;
6517;SDS011;3292;48.944;9.240;2024-01-16T13:50:42;4.40;;;3.53;;
6517;SDS011;3292;48.944;9.240;2024-01-16T13:53:09;6.43;;;3.80;;
6517;SDS011;3292;48.944;9.240;2024-01-16T13:55:39;6.47;;;3.80;;
6517;SDS011;3292;48.944;9.240;2024-01-16T13:58:07;5.07;;;3.90;;
6517;SDS011;3292;48.944;9.240;2024-01-16T14:00:34;6.73;;;3.40;;
6517;SDS011;3292;48.944;9.240;2024-01-16T14:03:00;4.47;;;3.40;;
6517;SDS011;3292;48.944;9.240;2024-01-16T14:05:30;7.77;;;3.93;;
6517;SDS011;3292;48.944;9.240;2024-01-16T14:07:57;5.70;;;3.77;;
6517;SDS011;3292;48.944;9.240;2024-01-16T14:10:24;4.40;;;3.60;;
6517;SDS011;3292;48.944;9.240;2024-01-16T14:12:52;4.97;;;3.60;;
6517;SDS011;3292;48.944;9.240;2024-01-16T14:15:19;3.80;;;3.50;;
6517;SDS011;3292;48.944;9.240;2024-01-16T14:17:49;5.30;;;3.67;;
6517;SDS011;3292;48.944;9.240;2024-01-16T14:20:17;4.27;;;3.30;;
6517;SDS011;3292;48.944;9.240;2024-01-16T14:22:48;6.87;;;3.50;;
6517;SDS011;3292;48.944;9.240;2024-01-16T14:25:15;5.83;;;3.43;;
6517;SDS011;3292;48.944;9.240;2024-01-16T14:27:44;4.37;;;3.53;;
6517;SDS011;3292;48.944;9.240;2024-01-16T14:30:13;4.63;;;3.63;;
6517;SDS011;3292;48.944;9.240;2024-01-16T14:32:42;4.47;;;3.20;;
6517;SDS011;3292;48.944;9.240;2024-01-16T14:35:09;6.17;;;3.50;;
6517;SDS011;3292;48.944;9.240;2024-01-16T14:37:38;6.53;;;3.70;;
6517;SDS011;3292;48.944;9.240;2024-01-16T14:40:06;5.93;;;3.20;;
6517;SDS011;3292;48.944;9.240;2024-01-16T14:42:37;7.97;;;3.50;;
6517;SDS011;3292;48.944;9.240;2024-01-16T14:45:07;4.93;;;3.40;;
6517;SDS011;3292;48.944;9.240;2024-01-16T14:47:38;3.87;;;3.43;;
6517;SDS011;3292;48.944;9.240;2024-01-16T14:50:05;4.83;;;3.57;;
6517;SDS011;3292;48.944;9.240;2024-01-16T14:52:34;6.33;;;3.67;;
6517;SDS011;3292;48.944;9.240;2024-01-16T14:55:02;5.03;;;3.60;;
6517;SDS011;3292;48.944;9.240;2024-01-16T14:57:30;5.23;;;3.30;;
6517;SDS011;3292;48.944;9.240;2024-01-16T15:00:03;5.60;;;3.67;;
6517;SDS011;3292;48.944;9.240;2024-01-16T15:02:40;6.20;;;4.07;;
6517;SDS011;3292;48.944;9.240;2024-01-16T15:05:07;5.03;;;3.80;;
6517;SDS011;3292;48.944;9.240;2024-01-16T15:07:34;4.50;;;3.77;;
6517;SDS011;3292;48.944;9.240;2024-01-16T15:10:02;6.80;;;3.60;;
6517;SDS011;3292;48.944;9.240;2024-01-16T15:12:30;5.13;;;3.70;;
6517;SDS011;3292;48.944;9.240;2024-01-16T15:14:57;3.83;;;3.13;;
6517;SDS011;3292;48.944;9.240;2024-01-16T15:17:24;5.60;;;3.63;;
6517;SDS011;3292;48.944;9.240;2024-01-16T15:19:53;6.87;;;3.90;;
6517;SDS011;3292;48.944;9.240;2024-01-16T15:22:20;4.90;;;3.93;;
6517;SDS011;3292;48.944;9.240;2024-01-16T15:24:47;4.40;;;3.73;;